Time;durP1;ratioP1;P1;durP2;ratioP2;P2;SDS_P1;SDS_P2;PMS_P1;PMS_P2;Temp;Humidity;BMP_temperature;BMP_pressure;BME280_temperature;BME280_humidity;BME280_pressure;Samples;Min_cycle;Max_cycle;Signal;HPM_P1;HPM_P2
2021/04/15 00:01:42;;;;;;;9.60;5.13;;;;;;;-1.12;79.65;102681.22;4952531;29;20050;-64
2021/04/15 00:04:10;;;;;;;7.50;3.50;;;;;;;-1.11;79.81;102688.16;4953440;29;20349;-64
2021/04/15 00:06:35;;;;;;;7.00;3.72;;;;;;;-1.14;79.73;102671.66;4936441;29;20467;-63
2021/04/15 00:09:07;;;;;;;6.43;3.10;;;;;;;-1.10;80.17;102684.66;4953571;29;20031;-64
2021/04/15 00:11:33;;;;;;;9.85;4.00;;;;;;;-1.14;79.42;102687.41;4953128;29;20043;-63
2021/04/15 00:14:00;;;;;;;8.77;3.92;;;;;;;-1.17;80.08;102684.84;4953347;29;20170;-64
2021/04/15 00:16:27;;;;;;;;;;;;;;;-1.18;79.73;102685.75;4936917;29;20539;-64
2021/04/15 00:18:52;;;;;;;8.50;3.13;;;;;;;-1.20;79.30;102683.16;4936122;29;20204;-64
2021/04/15 00:21:19;;;;;;;10.18;4.80;;;;;;;-1.19;79.29;102690.13;4953087;29;20058;-64
2021/04/15 00:23:45;;;;;;;10.43;4.03;;;;;;;-1.22;79.54;102684.94;4953247;29;20520;-64
2021/04/15 00:26:12;;;;;;;9.88;3.53;;;;;;;-1.24;79.80;102684.16;4952962;29;20126;-64
2021/04/15 00:28:38;;;;;;;9.35;3.97;;;;;;;-1.24;79.81;102686.78;4936153;29;20989;-64
2021/04/15 00:31:04;;;;;;;9.55;3.63;;;;;;;-1.24;79.63;102675.41;4936344;29;20031;-63
2021/04/15 00:33:29;;;;;;;7.03;3.60;;;;;;;-1.31;79.29;102690.47;4936285;29;20483;-64
2021/04/15 00:35:54;;;;;;;11.38;4.40;;;;;;;-1.32;79.82;102681.72;4953195;29;20461;-65
2021/04/15 00:38:22;;;;;;;8.97;4.07;;;;;;;-1.40;79.71;102681.06;4935905;29;20042;-64
2021/04/15 00:40:49;;;;;;;11.40;5.38;;;;;;;-1.36;80.52;102676.59;4935960;29;20735;-64
2021/04/15 00:43:17;;;;;;;9.10;4.30;;;;;;;-1.43;79.97;102680.25;4952933;29;20043;-64
2021/04/15 00:45:45;;;;;;;7.18;3.78;;;;;;;-1.41;80.54;102678.47;4920381;29;20043;-64
2021/04/15 00:48:39;;;;;;;12.73;4.30;;;;;;;-1.49;80.04;102690.00;4952578;29;20043;-64
2021/04/15 00:51:23;;;;;;;10.60;4.65;;;;;;;-1.53;80.34;102684.88;4952900;29;20039;-63
2021/04/15 00:54:16;;;;;;;9.73;4.55;;;;;;;-1.56;80.82;102680.56;4956133;29;20062;-63
2021/04/15 00:56:41;;;;;;;9.50;4.18;;;;;;;-1.58;80.95;102679.72;4927038;29;20039;-64
2021/04/15 00:59:07;;;;;;;7.93;3.90;;;;;;;-1.58;80.92;102671.03;4956481;29;20054;-64
2021/04/15 01:01:33;;;;;;;8.15;4.43;;;;;;;-1.53;81.53;102680.47;4956484;29;20067;-64
2021/04/15 01:03:58;;;;;;;10.48;4.55;;;;;;;-1.53;81.85;102679.63;4956630;29;20035;-64
2021/04/15 01:06:24;;;;;;;8.97;4.83;;;;;;;-1.54;81.91;102683.16;4939666;29;20035;-64
2021/04/15 01:08:49;;;;;;;10.83;4.17;;;;;;;-1.58;81.36;102676.25;4939369;29;20043;-63
2021/04/15 01:11:43;;;;;;;13.40;4.32;;;;;;;-1.58;81.67;102678.88;4956447;29;20070;-63
2021/04/15 01:14:22;;;;;;;10.23;4.80;;;;;;;-1.62;81.66;102675.47;4956422;29;20110;-64
2021/04/15 01:17:10;;;;;;;9.65;4.40;;;;;;;-1.66;81.57;102683.44;4939638;29;20134;-64
2021/04/15 01:20:06;;;;;;;10.25;4.80;;;;;;;-1.75;81.45;102674.91;4955942;29;20047;-63
2021/04/15 01:22:56;;;;;;;10.75;5.60;;;;;;;-1.79;82.15;102678.47;4956182;29;20050;-63
2021/04/15 01:25:59;;;;;;;8.75;4.22;;;;;;;-1.78;82.08;102679.34;4956252;29;20094;-64
2021/04/15 01:28:58;;;;;;;8.85;5.60;;;;;;;-1.82;82.07;102683.81;4938835;29;20035;-64
2021/04/15 01:31:36;;;;;;;11.15;5.18;;;;;;;-1.82;82.78;102683.81;4939246;29;20053;-64
2021/04/15 01:34:16;;;;;;;9.18;4.43;;;;;;;-1.82;83.04;102678.56;4955992;29;20039;-64
2021/04/15 01:36:50;;;;;;;8.93;4.97;;;;;;;-1.85;82.98;102683.00;4939139;29;20031;-64
2021/04/15 01:39:20;;;;;;;10.90;4.53;;;;;;;-1.85;82.92;102693.47;4955712;29;20039;-64
2021/04/15 01:41:58;;;;;;;7.50;4.22;;;;;;;-1.85;83.24;102689.13;4955827;29;20035;-64
2021/04/15 01:44:43;;;;;;;9.05;5.22;;;;;;;-1.90;83.56;102680.47;4938985;29;20039;-64
2021/04/15 01:47:16;;;;;;;10.10;4.90;;;;;;;-1.88;83.57;102690.94;4938345;29;20453;-64
2021/04/15 01:49:45;;;;;;;14.57;4.75;;;;;;;-1.93;83.75;102686.66;4922593;29;20090;-64
2021/04/15 01:52:13;;;;;;;11.13;4.95;;;;;;;-1.99;82.88;102697.28;4939069;29;20039;-64
2021/04/15 01:54:47;;;;;;;11.20;4.72;;;;;;;-1.98;83.22;102698.13;4955692;29;20353;-64
2021/04/15 01:57:29;;;;;;;9.85;4.68;;;;;;;-1.98;82.87;102692.91;4938836;29;20039;-64
2021/04/15 02:00:06;;;;;;;16.90;5.88;;;;;;;-1.99;83.06;102701.63;4938535;29;20031;-64
2021/04/15 02:02:42;;;;;;;16.25;6.72;;;;;;;-1.98;83.48;102699.00;4955730;29;20073;-64
2021/04/15 02:05:29;;;;;;;12.85;6.50;;;;;;;-2.00;83.44;102705.16;4954194;28;20053;-64
2021/04/15 02:08:08;;;;;;;24.52;7.38;;;;;;;-1.97;84.12;102697.22;4954358;29;20038;-64
2021/04/15 02:10:35;;;;;;;16.73;6.63;;;;;;;-1.99;84.23;102699.91;4955414;29;20484;-64
2021/04/15 02:13:04;;;;;;;17.33;6.03;;;;;;;-1.99;84.54;102712.09;4955335;29;20142;-64
2021/04/15 02:15:45;;;;;;;16.35;6.95;;;;;;;-1.98;84.47;102708.59;4955312;29;20181;-64
2021/04/15 02:18:18;;;;;;;12.98;5.55;;;;;;;-1.95;84.58;102701.53;4938130;29;20065;-64
2021/04/15 02:20:47;;;;;;;15.63;6.20;;;;;;;-1.92;84.51;102708.44;4938107;29;20039;-64
2021/04/15 02:23:21;;;;;;;11.35;6.00;;;;;;;-1.96;85.32;102697.19;4938419;29;20050;-63
2021/04/15 02:25:55;;;;;;;13.48;6.10;;;;;;;-1.98;85.18;102703.38;4922280;29;20232;-63
2021/04/15 02:28:44;;;;;;;17.15;7.82;;;;;;;-1.97;85.23;102699.84;4954888;29;20043;-64
2021/04/15 02:31:20;;;;;;;15.63;6.65;;;;;;;-1.96;85.12;102696.34;4954965;29;20039;-63
2021/04/15 02:33:52;;;;;;;22.35;6.80;;;;;;;-1.97;85.19;102689.38;4938615;29;20456;-64
2021/04/15 02:36:20;;;;;;;14.73;6.20;;;;;;;-1.95;84.96;102700.66;4938074;29;20043;-64
2021/04/15 02:39:06;;;;;;;10.18;5.75;;;;;;;-1.94;84.64;102694.56;4954682;29;20082;-64
2021/04/15 02:41:33;;;;;;;14.15;6.60;;;;;;;-1.89;85.05;102697.94;4954689;29;20531;-64
2021/04/15 02:44:06;;;;;;;13.57;5.93;;;;;;;-1.91;84.69;102694.47;4954837;29;20118;-64
2021/04/15 02:46:39;;;;;;;16.65;5.47;;;;;;;-1.94;84.56;102702.41;4954787;29;20050;-64
2021/04/15 02:49:08;;;;;;;17.05;5.93;;;;;;;-1.96;84.13;102697.19;4937501;29;20039;-64
2021/04/15 02:51:44;;;;;;;11.18;5.43;;;;;;;-1.99;84.23;102699.91;4954646;29;20037;-64
2021/04/15 02:54:12;;;;;;;;;;;;;;;-1.95;84.46;102708.53;4955045;29;20053;-64
2021/04/15 02:56:57;;;;;;;12.95;5.18;;;;;;;-1.96;84.37;102701.59;4954525;29;19995;-63
2021/04/15 02:59:29;;;;;;;22.02;9.00;;;;;;;-2.01;84.50;102701.69;4954319;29;20035;-64
2021/04/15 03:02:01;;;;;;;16.92;7.65;;;;;;;-2.00;84.34;102710.38;4937721;29;20050;-64
2021/04/15 03:04:27;;;;;;;17.50;7.72;;;;;;;-2.01;84.58;102706.91;4937566;29;20039;-63
2021/04/15 03:06:57;;;;;;;16.80;7.80;;;;;;;-2.03;84.26;102716.56;4937534;29;20459;-64
2021/04/15 03:09:24;;;;;;;12.63;6.00;;;;;;;-2.00;84.27;102711.25;4954137;29;20042;-63
2021/04/15 03:11:59;;;;;;;12.70;6.07;;;;;;;-1.99;84.39;102712.97;4954253;29;20523;-64
2021/04/15 03:14:28;;;;;;;16.13;6.07;;;;;;;-1.99;84.10;102712.97;4954305;28;20039;-63
2021/04/15 03:17:03;;;;;;;10.02;5.63;;;;;;;-1.97;84.35;102711.19;4953848;29;20031;-64
2021/04/15 03:19:36;;;;;;;10.20;6.82;;;;;;;-1.98;84.18;102709.47;4936973;29;20046;-64
2021/04/15 03:22:21;;;;;;;14.23;6.10;;;;;;;-2.00;84.30;102713.00;4954093;29;20050;-63
2021/04/15 03:24:52;;;;;;;16.57;6.70;;;;;;;-2.00;84.34;102710.38;4954053;29;20129;-64
2021/04/15 03:27:36;;;;;;;17.20;7.28;;;;;;;-2.02;84.96;102706.94;4936966;29;21205;-64
2021/04/15 03:30:19;;;;;;;22.83;8.63;;;;;;;-2.01;85.96;102709.53;4953974;29;20110;-64
2021/04/15 03:32:52;;;;;;;18.00;8.02;;;;;;;-2.03;85.50;102715.69;4954062;29;20071;-63
2021/04/15 03:35:39;;;;;;;14.30;7.40;;;;;;;-2.03;85.90;102716.56;4937105;29;20050;-64
2021/04/15 03:38:12;;;;;;;11.02;5.60;;;;;;;-2.07;85.92;102714.88;4953631;29;20035;-64
2021/04/15 03:40:43;;;;;;;12.70;6.57;;;;;;;-2.10;85.56;102708.88;4953806;29;20301;-64
2021/04/15 03:43:12;;;;;;;13.90;7.20;;;;;;;-2.15;85.59;102712.44;4953828;29;20031;-63
2021/04/15 03:46:01;;;;;;;28.10;14.48;;;;;;;-2.12;86.38;102711.50;4953792;29;20074;-64
2021/04/15 03:48:31;;;;;;;19.27;9.07;;;;;;;-2.20;85.96;102716.91;4936431;29;20041;-63
2021/04/15 03:51:02;;;;;;;20.75;8.18;;;;;;;-2.20;86.02;102718.66;4936668;29;20031;-63
2021/04/15 03:53:34;;;;;;;12.88;7.05;;;;;;;-2.23;85.59;102719.56;4936806;29;20035;-63
2021/04/15 03:56:04;;;;;;;15.43;6.50;;;;;;;-2.23;85.48;102716.09;4936770;29;20038;-63
2021/04/15 04:01:30;;;;;;;11.90;6.30;;;;;;;-2.15;85.45;102722.91;4931469;29;20044;-70
2021/04/15 04:04:07;;;;;;;20.13;6.97;;;;;;;-2.14;85.19;102726.38;4934211;29;20118;-70
2021/04/15 04:06:39;;;;;;;14.00;6.03;;;;;;;-2.15;85.15;102722.06;4917324;29;20102;-70
2021/04/15 04:09:13;;;;;;;16.25;6.90;;;;;;;-2.12;85.58;102727.22;4933626;29;20050;-70
2021/04/15 04:11:40;;;;;;;17.08;6.22;;;;;;;-2.15;85.43;102728.16;4917909;29;20457;-70
2021/04/15 04:14:15;;;;;;;15.77;7.15;;;;;;;-2.16;85.62;102730.78;4933936;29;20417;-70
2021/04/15 04:16:44;;;;;;;19.05;7.30;;;;;;;-2.14;85.74;102735.09;4933175;29;20051;-69
2021/04/15 04:19:35;;;;;;;11.75;5.72;;;;;;;-2.16;85.68;102730.78;4934202;29;20047;-70
2021/04/15 04:22:27;;;;;;;15.90;6.25;;;;;;;-2.17;85.57;102735.16;4933064;29;20042;-70
2021/04/15 04:25:11;;;;;;;10.73;5.57;;;;;;;-2.14;85.88;102739.47;4934101;29;20050;-71
2021/04/15 04:28:32;;;;;;;14.52;5.78;;;;;;;-2.12;85.96;102735.94;4931736;29;20134;-71
2021/04/15 04:31:08;;;;;;;14.65;6.75;;;;;;;-2.12;85.81;102729.84;4856852;29;20038;-71
2021/04/15 04:33:43;;;;;;;13.50;7.00;;;;;;;-2.12;86.26;102732.44;4975287;23;20077;-70
2021/04/15 04:36:11;;;;;;;10.60;6.43;;;;;;;-2.14;85.88;102735.09;4991478;28;20117;-71
2021/04/15 04:38:37;;;;;;;12.02;6.05;;;;;;;-2.14;86.26;102742.94;4991237;28;20443;-71
2021/04/15 04:41:35;;;;;;;;;;;;;;;-2.03;87.35;102742.72;4991682;28;20046;-71
2021/04/15 04:44:06;;;;;;;14.40;6.68;;;;;;;-2.01;87.47;102740.09;4958539;28;19914;-71
2021/04/15 04:46:41;;;;;;;15.80;7.60;;;;;;;-1.89;88.39;102739.81;4990391;28;20451;-71
2021/04/15 04:49:15;;;;;;;15.00;7.90;;;;;;;-1.82;88.62;102746.66;4991016;28;20129;-71
2021/04/15 04:51:48;;;;;;;16.52;7.72;;;;;;;-1.80;88.61;102752.72;4991269;28;20376;-71
2021/04/15 04:54:17;;;;;;;14.20;6.55;;;;;;;-1.94;87.54;102752.16;4991325;28;20149;-71
2021/04/15 04:56:49;;;;;;;15.73;5.68;;;;;;;-1.98;87.25;102753.09;4991352;28;20048;-71
2021/04/15 04:59:19;;;;;;;14.77;6.57;;;;;;;-1.94;87.40;102762.63;4991030;28;20045;-71
2021/04/15 05:01:44;;;;;;;14.68;7.28;;;;;;;-1.91;86.80;102762.56;4991273;28;20502;-71
2021/04/15 05:04:10;;;;;;;13.23;6.20;;;;;;;-1.88;86.68;102766.84;4974100;28;20042;-71
2021/04/15 05:06:40;;;;;;;15.35;6.55;;;;;;;-1.81;86.70;102768.44;4974141;28;20277;-71
2021/04/15 05:09:19;;;;;;;14.40;6.47;;;;;;;-1.69;86.77;102765.56;4991013;28;20359;-71
2021/04/15 05:11:51;;;;;;;13.43;6.15;;;;;;;-1.62;86.48;102774.13;4991176;28;20521;-71
2021/04/15 05:14:25;;;;;;;13.40;6.43;;;;;;;-1.56;86.16;102774.00;4991117;28;20091;-71
2021/04/15 05:16:59;;;;;;;12.23;5.75;;;;;;;-1.38;86.98;102763.13;4974285;28;20030;-71
2021/04/15 05:19:24;;;;;;;14.38;5.78;;;;;;;-1.24;87.00;102772.38;4973711;28;20062;-70
2021/04/15 05:21:51;;;;;;;11.73;6.27;;;;;;;-1.20;86.29;102774.91;4973883;28;20078;-71
2021/04/15 05:24:16;;;;;;;;;;;;;;;-1.15;85.82;102761.69;4974448;28;20281;-71
2021/04/15 05:26:44;;;;;;;8.50;4.55;;;;;;;-0.99;85.83;102775.28;4991358;28;20711;-71
2021/04/15 05:29:15;;;;;;;12.45;5.72;;;;;;;-0.86;86.74;102779.31;4990961;28;20049;-71
2021/04/15 05:31:44;;;;;;;18.55;6.28;;;;;;;-0.67;86.85;102774.47;4990848;28;20520;-71
2021/04/15 05:34:19;;;;;;;16.95;7.00;;;;;;;-0.49;86.93;102781.84;4989309;28;20399;-71
2021/04/15 05:36:45;;;;;;;8.57;3.88;;;;;;;-0.29;86.94;102780.44;4991092;28;20344;-71
2021/04/15 05:39:14;;;;;;;11.48;6.00;;;;;;;-0.06;86.89;102780.66;4992746;28;20053;-71
2021/04/15 05:41:58;;;;;;;17.88;6.68;;;;;;;0.21;86.96;102791.25;4994341;28;20038;-71
2021/04/15 05:44:40;;;;;;;10.15;6.00;;;;;;;0.36;86.24;102792.56;4977286;28;20040;-71
2021/04/15 05:47:17;;;;;;;9.30;5.22;;;;;;;0.98;87.67;102784.47;4994281;28;20038;-71
2021/04/15 05:49:50;;;;;;;11.52;6.75;;;;;;;1.90;84.02;102778.63;4993961;28;20399;-71
2021/04/15 05:52:33;;;;;;;12.45;4.68;;;;;;;2.52;78.37;102787.66;4994390;28;20387;-71
2021/04/15 05:55:08;;;;;;;10.10;4.72;;;;;;;2.94;77.92;102792.13;4977103;28;20096;-70
2021/04/15 05:57:41;;;;;;;7.03;3.67;;;;;;;3.18;77.56;102786.75;4993761;28;20062;-71
2021/04/15 06:00:11;;;;;;;14.32;5.47;;;;;;;3.60;76.38;102791.13;4976787;28;20050;-71
2021/04/15 06:02:50;;;;;;;7.03;3.80;;;;;;;3.79;75.60;102789.41;4977598;28;20459;-71
2021/04/15 06:05:51;;;;;;;6.63;3.33;;;;;;;4.16;75.34;102793.00;4976651;28;20034;-71
2021/04/15 06:08:17;;;;;;;7.35;3.60;;;;;;;4.30;75.42;102788.88;4957014;28;20128;-71
2021/04/15 06:10:43;;;;;;;12.05;3.80;;;;;;;4.51;74.44;102787.84;4976885;28;20636;-71
2021/04/15 06:13:25;;;;;;;7.90;3.95;;;;;;;4.56;73.34;102791.13;4960862;28;20607;-70
2021/04/15 06:15:51;;;;;;;9.88;2.92;;;;;;;5.17;71.31;102792.53;4994106;28;20113;-70
2021/04/15 06:18:38;;;;;;;5.22;2.58;;;;;;;5.43;71.70;102793.00;4976472;28;20188;-71
2021/04/15 06:21:18;;;;;;;4.57;2.47;;;;;;;6.04;71.58;102794.25;4976834;28;20046;-70
2021/04/15 06:24:04;;;;;;;10.40;3.25;;;;;;;6.75;68.27;102788.56;4994092;28;20038;-71
2021/04/15 06:26:51;;;;;;;4.32;2.38;;;;;;;7.50;65.96;102783.28;4976682;28;20100;-70
2021/04/15 06:29:27;;;;;;;8.07;3.38;;;;;;;6.83;65.70;102790.75;4960337;28;20034;-70
2021/04/15 06:31:55;;;;;;;9.30;3.40;;;;;;;7.08;65.11;102785.75;4993043;28;20041;-70
2021/04/15 06:34:22;;;;;;;4.28;2.45;;;;;;;7.45;64.17;102785.38;4993526;28;20034;-70
2021/04/15 06:37:12;;;;;;;7.78;2.58;;;;;;;7.58;64.54;102781.00;4993533;28;20133;-70
2021/04/15 06:39:50;;;;;;;4.78;2.60;;;;;;;7.75;63.20;102794.13;4993384;28;20030;-70
2021/04/15 06:42:58;;;;;;;7.70;2.72;;;;;;;7.45;63.76;102790.69;4976584;28;20066;-68
2021/04/15 06:45:29;;;;;;;5.40;2.55;;;;;;;7.69;63.99;102793.66;4988385;28;20124;-69
2021/04/15 06:48:00;;;;;;;6.38;3.03;;;;;;;7.39;64.42;102787.44;4993296;28;20053;-69
2021/04/15 06:50:32;;;;;;;6.65;2.47;;;;;;;7.45;63.90;102796.84;4975552;28;20026;-69
2021/04/15 06:53:22;;;;;;;8.57;2.75;;;;;;;7.66;63.95;102791.19;4993539;28;20042;-69
2021/04/15 06:56:05;;;;;;;6.40;2.85;;;;;;;8.00;62.37;102792.59;4976062;28;20108;-69
2021/04/15 06:58:51;;;;;;;5.40;3.10;;;;;;;8.32;62.78;102793.25;4993093;28;20053;-68
2021/04/15 07:01:35;;;;;;;4.03;2.30;;;;;;;8.21;61.87;102791.25;4992335;28;20034;-68
2021/04/15 07:04:10;;;;;;;4.15;2.58;;;;;;;8.12;61.82;102790.97;4993134;28;20069;-69
2021/04/15 07:06:55;;;;;;;5.57;2.47;;;;;;;8.04;62.97;102786.16;4992908;28;20050;-69
2021/04/15 07:09:56;;;;;;;8.55;3.33;;;;;;;7.91;64.02;102791.38;4975647;28;20444;-69
2021/04/15 07:12:34;;;;;;;10.45;3.40;;;;;;;7.82;63.35;102789.31;4975863;28;20084;-69
2021/04/15 07:15:31;;;;;;;6.40;3.47;;;;;;;8.30;63.79;102791.63;4992895;28;20131;-69
2021/04/15 07:18:08;;;;;;;5.90;2.42;;;;;;;8.64;62.35;102803.69;4992529;28;20092;-69
2021/04/15 07:20:57;;;;;;;4.80;2.50;;;;;;;8.49;62.52;102794.84;4992799;28;20042;-69
2021/04/15 07:23:34;;;;;;;7.45;2.92;;;;;;;8.48;63.03;102793.16;4970147;28;20054;-69
2021/04/15 07:26:12;;;;;;;8.43;3.00;;;;;;;8.49;62.22;102794.84;4975630;28;20495;-69
2021/04/15 07:28:52;;;;;;;11.93;3.33;;;;;;;8.11;62.85;102805.25;4975345;28;20642;-69
2021/04/15 07:31:49;;;;;;;3.88;2.40;;;;;;;8.20;62.30;102794.03;4975496;28;20038;-70
2021/04/15 07:34:36;;;;;;;10.73;2.75;;;;;;;8.71;62.22;102799.66;4992536;28;20050;-70
2021/04/15 07:37:17;;;;;;;7.55;2.58;;;;;;;8.92;61.18;102796.50;4992506;28;20042;-69
2021/04/15 07:40:00;;;;;;;6.68;2.88;;;;;;;8.93;60.25;102793.75;4974758;28;20378;-64
2021/04/15 07:42:53;;;;;;;5.85;2.30;;;;;;;9.54;60.10;102799.41;4974874;28;20101;-64
2021/04/15 07:45:44;;;;;;;4.22;2.53;;;;;;;9.30;59.92;102794.81;4975085;28;20042;-64
2021/04/15 07:48:28;;;;;;;5.32;2.58;;;;;;;9.05;60.16;102800.06;4974438;28;20030;-69
2021/04/15 07:51:19;;;;;;;5.53;2.63;;;;;;;9.47;58.91;102804.31;4959193;28;20125;-70
2021/04/15 07:54:22;;;;;;;4.97;2.80;;;;;;;9.65;57.95;102804.88;4991488;28;20041;-70
2021/04/15 07:57:25;;;;;;;4.15;2.70;;;;;;;9.65;57.93;102807.53;4992343;28;20414;-70
2021/04/15 08:00:01;;;;;;;4.68;2.83;;;;;;;9.08;58.52;102807.84;4974977;28;20038;-69
2021/04/15 08:02:29;;;;;;;;;;;;;;;9.25;58.70;102807.59;4975316;28;20046;-70
2021/04/15 08:05:04;;;;;;;5.07;2.38;;;;;;;9.19;56.98;102808.00;4975049;28;19923;-69
2021/04/15 08:07:45;;;;;;;4.80;3.10;;;;;;;9.23;57.18;102808.66;4974845;28;20069;-70
2021/04/15 08:10:26;;;;;;;5.85;2.70;;;;;;;9.56;55.41;102808.16;4992130;28;20117;-69
2021/04/15 08:13:29;;;;;;;5.63;2.95;;;;;;;9.54;55.04;102802.09;4992006;28;20046;-70
2021/04/15 08:16:21;;;;;;;5.68;2.75;;;;;;;9.85;52.71;102813.28;4992010;28;20069;-70
2021/04/15 08:19:02;;;;;;;4.95;3.05;;;;;;;9.97;53.64;102803.56;4974587;28;20038;-70
2021/04/15 08:21:41;;;;;;;7.53;2.50;;;;;;;10.21;53.19;102803.63;4975024;28;20042;-70
2021/04/15 08:24:28;;;;;;;5.93;2.85;;;;;;;10.75;52.28;102811.31;4974986;28;20045;-70
2021/04/15 08:27:17;;;;;;;4.45;2.30;;;;;;;10.85;52.42;102814.16;4991662;28;20034;-70
2021/04/15 08:29:48;;;;;;;8.52;2.78;;;;;;;11.63;47.82;102802.84;4990560;28;20036;-70
2021/04/15 08:32:14;;;;;;;5.15;2.20;;;;;;;11.41;47.19;102807.19;4974624;28;20044;-70
2021/04/15 08:35:16;;;;;;;5.70;2.83;;;;;;;10.76;48.21;102805.84;4974621;28;20133;-70
2021/04/15 08:38:09;;;;;;;7.97;2.90;;;;;;;11.28;47.54;102805.56;4958310;28;20034;-69
2021/04/15 08:41:12;;;;;;;2.65;1.88;;;;;;;11.40;46.47;102810.84;4974560;28;20125;-70
2021/04/15 08:44:02;;;;;;;4.22;2.13;;;;;;;11.02;48.34;102810.22;4957829;28;20042;-70
2021/04/15 08:46:53;;;;;;;5.10;2.15;;;;;;;11.37;47.31;102800.38;4972927;28;20341;-70
2021/04/15 08:49:33;;;;;;;4.38;2.28;;;;;;;11.61;46.67;102799.44;4989833;28;20034;-70
2021/04/15 08:52:18;;;;;;;5.60;2.75;;;;;;;11.59;46.35;102798.75;4973161;28;20564;-70
2021/04/15 08:54:55;;;;;;;8.40;3.40;;;;;;;12.45;45.56;102803.50;4972934;28;20038;-69
2021/04/15 08:57:31;;;;;;;3.92;2.25;;;;;;;12.76;43.26;102801.00;4990216;28;20543;-69
2021/04/15 09:00:16;;;;;;;3.78;2.30;;;;;;;12.37;44.22;102805.09;4991263;28;20108;-70
2021/04/15 09:02:58;;;;;;;7.53;2.38;;;;;;;12.76;42.49;102810.84;4991604;28;20038;-70
2021/04/15 09:05:44;;;;;;;3.90;2.13;;;;;;;13.52;40.26;102807.09;4991406;28;20046;-70
2021/04/15 09:08:20;;;;;;;;;;;;;;;12.48;41.44;102804.22;4974727;28;20042;-69
2021/04/15 09:10:59;;;;;;;4.93;2.15;;;;;;;13.71;40.91;102806.38;4991596;28;19949;-70
2021/04/15 09:13:30;;;;;;;3.92;2.10;;;;;;;13.66;40.97;102802.41;4992521;28;20057;-70
2021/04/15 09:16:06;;;;;;;3.58;2.15;;;;;;;13.86;39.23;102808.69;4978201;28;20042;-70
2021/04/15 09:19:05;;;;;;;3.17;2.45;;;;;;;13.05;40.32;102811.97;4994980;28;20122;-70
2021/04/15 09:21:49;;;;;;;2.78;2.03;;;;;;;13.89;38.81;102808.44;4977684;28;20046;-70
2021/04/15 09:24:42;;;;;;;1.67;1.58;;;;;;;14.05;38.25;102800.75;4978043;28;20050;-70
2021/04/15 09:27:41;;;;;;;3.67;2.00;;;;;;;13.55;38.63;102797.09;4995071;28;20081;-70
2021/04/15 09:30:31;;;;;;;5.47;2.38;;;;;;;14.05;39.79;102805.28;4975959;28;20137;-70
2021/04/15 09:33:13;;;;;;;4.65;2.05;;;;;;;14.45;38.37;102796.34;4995035;28;20581;-70
2021/04/15 09:36:24;;;;;;;2.80;1.70;;;;;;;14.21;37.38;102794.88;4994869;28;20050;-71
2021/04/15 09:39:15;;;;;;;5.30;1.73;;;;;;;14.31;38.77;102795.75;4994612;28;20128;-70
2021/04/15 09:41:54;;;;;;;2.85;1.48;;;;;;;14.30;37.16;102788.66;4961327;28;20026;-70
2021/04/15 09:44:47;;;;;;;2.00;1.75;;;;;;;14.70;38.42;102800.38;4994735;28;20031;-71
2021/04/15 09:47:31;;;;;;;3.60;2.00;;;;;;;15.09;37.01;102806.63;4977603;28;20639;-71
2021/04/15 09:50:19;;;;;;;2.92;1.60;;;;;;;14.52;38.67;102792.97;4977574;28;20474;-71
2021/04/15 09:53:06;;;;;;;3.40;1.20;;;;;;;14.35;37.34;102802.56;4994581;28;20121;-71
2021/04/15 09:55:45;;;;;;;4.18;1.58;;;;;;;14.61;35.77;102795.81;4994529;28;20133;-71
2021/04/15 09:58:36;;;;;;;2.97;1.45;;;;;;;14.21;36.58;102794.00;4961339;28;20049;-71
2021/04/15 10:01:08;;;;;;;2.53;1.50;;;;;;;13.81;37.11;102792.16;4987028;28;20050;-70
2021/04/15 10:03:46;;;;;;;1.83;1.00;;;;;;;14.04;37.24;102796.34;4994452;28;20042;-71
2021/04/15 10:06:22;;;;;;;1.77;0.93;;;;;;;13.91;37.68;102796.59;4977353;28;20451;-71
2021/04/15 10:08:57;;;;;;;3.38;1.33;;;;;;;14.30;36.57;102791.34;4976967;28;20038;-71
2021/04/15 10:11:37;;;;;;;3.15;0.95;;;;;;;14.27;36.06;102788.94;4994221;28;20038;-71
2021/04/15 10:14:40;;;;;;;3.28;1.20;;;;;;;14.46;36.92;102787.28;4977111;28;20355;-71
2021/04/15 10:17:33;;;;;;;1.85;0.88;;;;;;;14.78;33.17;102793.31;4977074;28;20038;-71
2021/04/15 10:20:26;;;;;;;3.20;1.00;;;;;;;14.35;33.68;102786.44;4976801;28;20202;-71
2021/04/15 10:23:41;;;;;;;1.65;0.70;;;;;;;13.73;33.08;102792.81;4994165;28;20076;-71
2021/04/15 10:26:38;;;;;;;3.40;0.73;;;;;;;14.64;33.00;102795.56;4992768;28;20038;-72
2021/04/15 10:29:25;;;;;;;1.52;1.02;;;;;;;14.72;32.96;102793.00;4993722;28;20436;-71
2021/04/15 10:32:32;;;;;;;1.35;0.88;;;;;;;15.07;34.26;102797.84;4993730;28;20045;-71
2021/04/15 10:35:21;;;;;;;4.28;0.90;;;;;;;15.13;34.10;102791.06;4993500;28;20038;-71
2021/04/15 10:38:05;;;;;;;1.65;0.77;;;;;;;15.21;33.66;102791.16;4976228;28;20053;-71
2021/04/15 10:40:40;;;;;;;2.00;1.00;;;;;;;14.78;32.60;102796.00;4976438;28;20038;-72
2021/04/15 10:43:30;;;;;;;2.55;1.25;;;;;;;14.90;33.46;102795.88;4993585;28;20034;-72
2021/04/15 10:46:29;;;;;;;2.03;0.80;;;;;;;15.02;33.27;102800.09;4993622;28;20431;-72
2021/04/15 10:49:17;;;;;;;1.45;0.95;;;;;;;13.91;35.47;102791.22;4959985;28;20034;-72
2021/04/15 10:51:55;;;;;;;4.15;0.80;;;;;;;14.30;34.48;102783.28;4993493;28;20062;-72
2021/04/15 10:54:26;;;;;;;0.88;0.80;;;;;;;12.40;36.40;102800.31;4976347;28;20126;-72
2021/04/15 10:57:13;;;;;;;3.78;1.10;;;;;;;11.47;37.54;102783.63;4993389;28;20057;-72
2021/04/15 10:59:42;;;;;;;1.60;1.10;;;;;;;12.54;36.88;102780.44;4991281;28;20058;-72
2021/04/15 11:02:18;;;;;;;3.00;0.95;;;;;;;13.54;36.40;102790.88;4976050;28;20136;-72
2021/04/15 11:04:44;;;;;;;2.58;0.80;;;;;;;13.81;34.73;102784.94;4993109;28;20085;-72
2021/04/15 11:07:19;;;;;;;3.33;1.08;;;;;;;13.12;35.61;102774.75;4975953;28;20038;-72
2021/04/15 11:09:47;;;;;;;3.30;1.10;;;;;;;13.39;36.19;102790.38;4992753;28;20124;-72
2021/04/15 11:12:15;;;;;;;1.98;1.10;;;;;;;13.12;36.20;102784.63;4993065;28;20051;-72
2021/04/15 11:14:44;;;;;;;2.72;1.23;;;;;;;13.83;35.27;102785.66;4975972;28;20440;-73
2021/04/15 11:17:21;;;;;;;2.97;1.55;;;;;;;12.66;38.57;102779.44;4975787;28;20034;-73
2021/04/15 11:19:48;;;;;;;7.40;2.10;;;;;;;12.58;40.20;102783.75;4975499;28;20616;-73
2021/04/15 11:22:20;;;;;;;3.33;2.10;;;;;;;12.17;42.56;102783.44;4975400;28;20574;-73
2021/04/15 11:24:46;;;;;;;3.95;2.20;;;;;;;11.89;43.00;102781.25;4992869;28;20042;-73
2021/04/15 11:27:13;;;;;;;3.75;1.80;;;;;;;11.20;44.73;102777.59;4992428;28;20104;-72
2021/04/15 11:29:48;;;;;;;1.95;1.45;;;;;;;11.01;43.57;102784.47;4975177;28;20438;-73
2021/04/15 11:32:35;;;;;;;3.65;1.58;;;;;;;10.72;45.83;102772.34;4992738;28;20034;-73
2021/04/15 11:35:08;;;;;;;5.55;2.35;;;;;;;11.45;45.25;102769.50;4992373;28;20371;-73
2021/04/15 11:37:36;;;;;;;5.15;2.08;;;;;;;11.36;43.15;102769.25;4992101;28;20463;-72
2021/04/15 11:40:36;;;;;;;4.18;1.95;;;;;;;11.05;45.25;102773.44;4992544;28;20039;-73
2021/04/15 11:43:25;;;;;;;4.43;1.67;;;;;;;10.45;46.30;102769.03;4991875;28;20363;-73
2021/04/15 11:45:53;;;;;;;4.03;1.73;;;;;;;10.94;45.84;102781.41;4975293;28;20133;-73
2021/04/15 11:48:36;;;;;;;5.10;1.30;;;;;;;10.69;43.53;102766.34;4992179;28;20041;-72
2021/04/15 11:51:14;;;;;;;2.47;1.50;;;;;;;12.27;41.00;102769.31;4992492;28;20038;-73
2021/04/15 11:53:48;;;;;;;2.65;1.17;;;;;;;13.32;39.16;102767.72;4992239;28;20030;-73
2021/04/15 11:56:21;;;;;;;2.97;1.20;;;;;;;13.44;37.83;102766.69;4975247;28;20057;-73
2021/04/15 11:58:46;;;;;;;5.90;2.08;;;;;;;14.02;35.03;102762.56;4992077;28;20042;-73
2021/04/15 12:01:23;;;;;;;2.35;0.90;;;;;;;13.49;35.09;102761.75;4992255;28;20042;-73
2021/04/15 12:03:54;;;;;;;1.13;0.70;;;;;;;13.00;35.95;102765.91;4992224;28;20058;-73
2021/04/15 12:06:21;;;;;;;3.33;1.13;;;;;;;12.25;37.02;102762.25;4992201;28;20038;-73
2021/04/15 12:08:48;;;;;;;0.80;0.70;;;;;;;12.96;36.07;102771.66;4991879;28;20050;-73
2021/04/15 12:11:21;;;;;;;0.47;0.47;;;;;;;12.38;31.25;102759.41;4974931;28;20109;-73
2021/04/15 12:13:50;;;;;;;1.63;0.50;;;;;;;12.22;32.30;102761.66;4992106;28;20336;-73
2021/04/15 12:16:46;;;;;;;0.43;0.43;;;;;;;12.13;32.10;102760.59;4992175;28;20073;-73
2021/04/15 12:19:20;;;;;;;0.93;0.50;;;;;;;12.65;31.01;102753.63;4991791;28;20046;-73